Lockport, Louisiana
Current Conditions -  °F | °C
As of 5:50 AM on Sunday 23 Nov 2014 (Local Time) from KHUM Reporting Station
Rain Showers Rain Showers  
Wind Chill: 64°   Ceiling: 900
Heat Index: 64°   Visibility: 4mi
Dew Point: 64°   Wind: 10mph
Humidity: 100%   Direction: 210°SSW
Pressure: 29.76"   Gusts: 20mph
Location:  29.65°N, 90.54°W
Report Text: KHUM 231150Z 21009G17KT 4SM SHRA BR SCT003 BKN009 18/18 A2976 RMK RY12/30 CLOSED ATIS XRAY ILS/RY18 MS
Loading
Personal Weather Stations






























Interactive Weather Map New forecast layout! Learn more

10-Day Weather Forecast

Advertisements
Track Severe Weather on mobile